sensor_id;sensor_type;location;lat;lon;timestamp;P1;durP1;ratioP1;P2;durP2;ratioP2
56419;SDS011;42323;52.170;7.538;2024-01-15T00:00:51;313.92;;;289.33;;
56419;SDS011;42323;52.170;7.538;2024-01-15T00:03:18;312.33;;;289.40;;
56419;SDS011;42323;52.170;7.538;2024-01-15T00:05:45;314.00;;;289.77;;
56419;SDS011;42323;52.170;7.538;2024-01-15T00:08:11;310.63;;;287.70;;
56419;SDS011;42323;52.170;7.538;2024-01-15T00:10:38;310.85;;;288.27;;
56419;SDS011;42323;52.170;7.538;2024-01-15T00:13:06;314.23;;;290.13;;
56419;SDS011;42323;52.170;7.538;2024-01-15T00:15:33;316.77;;;292.13;;
56419;SDS011;42323;52.170;7.538;2024-01-15T00:18:00;307.00;;;284.15;;
56419;SDS011;42323;52.170;7.538;2024-01-15T00:20:26;446.20;;;309.77;;
56419;SDS011;42323;52.170;7.538;2024-01-15T00:22:56;318.23;;;294.08;;
56419;SDS011;42323;52.170;7.538;2024-01-15T00:25:23;319.05;;;295.90;;
56419;SDS011;42323;52.170;7.538;2024-01-15T00:27:50;319.55;;;295.45;;
56419;SDS011;42323;52.170;7.538;2024-01-15T00:30:16;318.50;;;296.00;;
56419;SDS011;42323;52.170;7.538;2024-01-15T00:32:43;311.77;;;289.58;;
56419;SDS011;42323;52.170;7.538;2024-01-15T00:35:10;311.13;;;289.15;;
56419;SDS011;42323;52.170;7.538;2024-01-15T00:37:37;314.88;;;291.98;;
56419;SDS011;42323;52.170;7.538;2024-01-15T00:40:04;315.80;;;294.15;;
56419;SDS011;42323;52.170;7.538;2024-01-15T00:42:31;314.88;;;290.92;;
56419;SDS011;42323;52.170;7.538;2024-01-15T00:44:58;310.95;;;288.80;;
56419;SDS011;42323;52.170;7.538;2024-01-15T00:47:25;319.60;;;294.48;;
56419;SDS011;42323;52.170;7.538;2024-01-15T00:49:52;425.10;;;317.52;;
56419;SDS011;42323;52.170;7.538;2024-01-15T00:52:18;312.15;;;290.17;;
56419;SDS011;42323;52.170;7.538;2024-01-15T00:54:45;308.02;;;287.08;;
56419;SDS011;42323;52.170;7.538;2024-01-15T00:57:12;318.85;;;296.35;;
56419;SDS011;42323;52.170;7.538;2024-01-15T00:59:39;316.23;;;294.00;;
56419;SDS011;42323;52.170;7.538;2024-01-15T01:02:05;317.15;;;295.48;;
56419;SDS011;42323;52.170;7.538;2024-01-15T01:04:32;320.13;;;297.90;;
56419;SDS011;42323;52.170;7.538;2024-01-15T01:06:58;316.88;;;295.38;;
56419;SDS011;42323;52.170;7.538;2024-01-15T01:09:25;332.50;;;309.08;;
56419;SDS011;42323;52.170;7.538;2024-01-15T01:11:55;320.08;;;298.50;;
56419;SDS011;42323;52.170;7.538;2024-01-15T01:14:22;326.30;;;303.02;;
56419;SDS011;42323;52.170;7.538;2024-01-15T01:16:49;317.48;;;295.75;;
56419;SDS011;42323;52.170;7.538;2024-01-15T01:19:15;309.63;;;288.13;;
56419;SDS011;42323;52.170;7.538;2024-01-15T01:21:43;319.58;;;298.23;;
56419;SDS011;42323;52.170;7.538;2024-01-15T01:24:09;314.92;;;293.65;;
56419;SDS011;42323;52.170;7.538;2024-01-15T01:26:36;316.10;;;294.40;;
56419;SDS011;42323;52.170;7.538;2024-01-15T01:29:03;307.88;;;286.77;;
56419;SDS011;42323;52.170;7.538;2024-01-15T01:31:29;309.63;;;288.70;;
56419;SDS011;42323;52.170;7.538;2024-01-15T01:33:56;303.70;;;282.73;;
56419;SDS011;42323;52.170;7.538;2024-01-15T01:36:23;307.63;;;286.35;;
56419;SDS011;42323;52.170;7.538;2024-01-15T01:38:50;310.05;;;289.27;;
56419;SDS011;42323;52.170;7.538;2024-01-15T01:41:17;314.50;;;293.65;;
56419;SDS011;42323;52.170;7.538;2024-01-15T01:43:43;313.20;;;291.95;;
56419;SDS011;42323;52.170;7.538;2024-01-15T01:46:10;305.45;;;284.70;;
56419;SDS011;42323;52.170;7.538;2024-01-15T01:48:37;310.98;;;289.20;;
56419;SDS011;42323;52.170;7.538;2024-01-15T01:51:04;311.75;;;290.40;;
56419;SDS011;42323;52.170;7.538;2024-01-15T01:53:31;317.25;;;295.73;;
56419;SDS011;42323;52.170;7.538;2024-01-15T01:56:01;314.95;;;293.83;;
56419;SDS011;42323;52.170;7.538;2024-01-15T01:58:29;326.80;;;303.23;;
56419;SDS011;42323;52.170;7.538;2024-01-15T02:01:02;309.45;;;288.55;;
56419;SDS011;42323;52.170;7.538;2024-01-15T02:03:30;324.35;;;300.70;;
56419;SDS011;42323;52.170;7.538;2024-01-15T02:05:57;314.10;;;293.17;;
56419;SDS011;42323;52.170;7.538;2024-01-15T02:08:26;322.02;;;300.13;;
56419;SDS011;42323;52.170;7.538;2024-01-15T02:10:53;314.77;;;293.65;;
56419;SDS011;42323;52.170;7.538;2024-01-15T02:13:19;327.52;;;305.30;;
56419;SDS011;42323;52.170;7.538;2024-01-15T02:15:46;318.08;;;297.02;;
56419;SDS011;42323;52.170;7.538;2024-01-15T02:18:13;327.50;;;305.48;;
56419;SDS011;42323;52.170;7.538;2024-01-15T02:20:40;325.63;;;303.70;;
56419;SDS011;42323;52.170;7.538;2024-01-15T02:25:33;319.85;;;297.98;;
56419;SDS011;42323;52.170;7.538;2024-01-15T02:28:00;323.15;;;301.08;;
56419;SDS011;42323;52.170;7.538;2024-01-15T02:30:26;318.27;;;296.55;;
56419;SDS011;42323;52.170;7.538;2024-01-15T02:32:54;312.10;;;291.35;;
56419;SDS011;42323;52.170;7.538;2024-01-15T02:35:21;315.13;;;293.75;;
56419;SDS011;42323;52.170;7.538;2024-01-15T02:37:48;321.38;;;299.40;;
56419;SDS011;42323;52.170;7.538;2024-01-15T02:40:14;321.17;;;298.88;;
56419;SDS011;42323;52.170;7.538;2024-01-15T02:42:41;322.83;;;300.25;;
56419;SDS011;42323;52.170;7.538;2024-01-15T02:45:08;323.90;;;300.83;;
56419;SDS011;42323;52.170;7.538;2024-01-15T02:47:35;318.30;;;296.67;;
56419;SDS011;42323;52.170;7.538;2024-01-15T02:50:01;319.65;;;297.85;;
56419;SDS011;42323;52.170;7.538;2024-01-15T02:52:28;315.42;;;293.85;;
56419;SDS011;42323;52.170;7.538;2024-01-15T02:54:55;318.83;;;296.75;;
56419;SDS011;42323;52.170;7.538;2024-01-15T02:57:21;317.90;;;296.20;;
56419;SDS011;42323;52.170;7.538;2024-01-15T02:59:48;325.23;;;302.83;;
56419;SDS011;42323;52.170;7.538;2024-01-15T03:02:15;316.65;;;294.55;;
56419;SDS011;42323;52.170;7.538;2024-01-15T03:04:44;328.23;;;304.98;;
56419;SDS011;42323;52.170;7.538;2024-01-15T03:07:11;318.35;;;295.65;;
56419;SDS011;42323;52.170;7.538;2024-01-15T03:09:38;318.65;;;296.50;;
56419;SDS011;42323;52.170;7.538;2024-01-15T03:12:04;310.60;;;288.58;;
56419;SDS011;42323;52.170;7.538;2024-01-15T03:14:31;322.73;;;300.13;;
56419;SDS011;42323;52.170;7.538;2024-01-15T03:16:58;323.40;;;300.45;;
56419;SDS011;42323;52.170;7.538;2024-01-15T03:19:26;322.92;;;300.15;;
56419;SDS011;42323;52.170;7.538;2024-01-15T03:21:53;331.13;;;303.58;;
56419;SDS011;42323;52.170;7.538;2024-01-15T03:24:21;331.08;;;307.77;;
56419;SDS011;42323;52.170;7.538;2024-01-15T03:26:47;464.67;;;329.88;;
56419;SDS011;42323;52.170;7.538;2024-01-15T03:29:14;322.63;;;299.30;;
56419;SDS011;42323;52.170;7.538;2024-01-15T03:31:41;320.40;;;297.23;;
56419;SDS011;42323;52.170;7.538;2024-01-15T03:34:07;315.83;;;293.20;;
56419;SDS011;42323;52.170;7.538;2024-01-15T03:36:34;430.83;;;314.73;;
56419;SDS011;42323;52.170;7.538;2024-01-15T03:39:01;325.65;;;301.60;;
56419;SDS011;42323;52.170;7.538;2024-01-15T03:41:28;316.15;;;294.17;;
56419;SDS011;42323;52.170;7.538;2024-01-15T03:43:54;316.58;;;294.38;;
56419;SDS011;42323;52.170;7.538;2024-01-15T03:46:21;317.67;;;295.30;;
56419;SDS011;42323;52.170;7.538;2024-01-15T03:48:47;323.73;;;301.35;;
56419;SDS011;42323;52.170;7.538;2024-01-15T03:51:15;319.08;;;296.95;;
56419;SDS011;42323;52.170;7.538;2024-01-15T03:53:43;321.20;;;298.55;;
56419;SDS011;42323;52.170;7.538;2024-01-15T03:56:10;327.23;;;304.52;;
56419;SDS011;42323;52.170;7.538;2024-01-15T03:58:37;467.17;;;330.95;;
56419;SDS011;42323;52.170;7.538;2024-01-15T04:01:03;330.67;;;306.83;;
56419;SDS011;42323;52.170;7.538;2024-01-15T04:03:35;320.20;;;298.00;;
56419;SDS011;42323;52.170;7.538;2024-01-15T04:06:03;322.17;;;299.42;;
56419;SDS011;42323;52.170;7.538;2024-01-15T04:08:31;322.13;;;299.02;;
56419;SDS011;42323;52.170;7.538;2024-01-15T04:10:57;452.92;;;322.75;;
56419;SDS011;42323;52.170;7.538;2024-01-15T04:13:24;322.42;;;299.00;;
56419;SDS011;42323;52.170;7.538;2024-01-15T04:15:51;314.85;;;293.20;;
56419;SDS011;42323;52.170;7.538;2024-01-15T04:18:17;317.20;;;295.20;;
56419;SDS011;42323;52.170;7.538;2024-01-15T04:20:44;319.30;;;296.50;;
56419;SDS011;42323;52.170;7.538;2024-01-15T04:23:11;320.92;;;298.65;;
56419;SDS011;42323;52.170;7.538;2024-01-15T04:25:37;315.55;;;294.38;;
56419;SDS011;42323;52.170;7.538;2024-01-15T04:28:07;314.90;;;293.23;;
56419;SDS011;42323;52.170;7.538;2024-01-15T04:30:37;316.33;;;294.48;;
56419;SDS011;42323;52.170;7.538;2024-01-15T04:33:04;317.30;;;294.58;;
56419;SDS011;42323;52.170;7.538;2024-01-15T04:35:31;312.25;;;290.10;;
56419;SDS011;42323;52.170;7.538;2024-01-15T04:37:57;322.00;;;299.13;;
56419;SDS011;42323;52.170;7.538;2024-01-15T04:40:24;320.77;;;298.48;;
56419;SDS011;42323;52.170;7.538;2024-01-15T04:42:54;317.98;;;296.10;;
56419;SDS011;42323;52.170;7.538;2024-01-15T04:45:21;316.42;;;294.98;;
56419;SDS011;42323;52.170;7.538;2024-01-15T04:47:49;320.73;;;298.98;;
56419;SDS011;42323;52.170;7.538;2024-01-15T04:50:15;317.67;;;296.48;;
56419;SDS011;42323;52.170;7.538;2024-01-15T04:52:42;317.17;;;295.92;;
56419;SDS011;42323;52.170;7.538;2024-01-15T04:55:09;323.67;;;301.73;;
56419;SDS011;42323;52.170;7.538;2024-01-15T04:57:35;316.58;;;295.52;;
56419;SDS011;42323;52.170;7.538;2024-01-15T05:00:02;315.52;;;294.55;;
56419;SDS011;42323;52.170;7.538;2024-01-15T05:02:29;318.27;;;295.48;;
56419;SDS011;42323;52.170;7.538;2024-01-15T05:04:56;316.25;;;292.88;;
56419;SDS011;42323;52.170;7.538;2024-01-15T05:07:22;321.45;;;299.63;;
56419;SDS011;42323;52.170;7.538;2024-01-15T05:09:49;320.58;;;298.80;;
56419;SDS011;42323;52.170;7.538;2024-01-15T05:12:16;319.48;;;297.58;;
56419;SDS011;42323;52.170;7.538;2024-01-15T05:14:42;326.35;;;304.15;;
56419;SDS011;42323;52.170;7.538;2024-01-15T05:17:09;325.08;;;303.23;;
56419;SDS011;42323;52.170;7.538;2024-01-15T05:19:36;324.35;;;302.38;;
56419;SDS011;42323;52.170;7.538;2024-01-15T05:22:03;324.75;;;300.90;;
56419;SDS011;42323;52.170;7.538;2024-01-15T05:24:30;326.45;;;304.63;;
56419;SDS011;42323;52.170;7.538;2024-01-15T05:26:56;321.80;;;299.98;;
56419;SDS011;42323;52.170;7.538;2024-01-15T05:29:23;327.45;;;305.35;;
56419;SDS011;42323;52.170;7.538;2024-01-15T05:31:50;319.30;;;295.88;;
56419;SDS011;42323;52.170;7.538;2024-01-15T05:34:16;325.52;;;303.17;;
56419;SDS011;42323;52.170;7.538;2024-01-15T05:36:43;331.00;;;308.33;;
56419;SDS011;42323;52.170;7.538;2024-01-15T05:39:13;468.33;;;325.05;;
56419;SDS011;42323;52.170;7.538;2024-01-15T05:41:39;317.88;;;296.20;;
56419;SDS011;42323;52.170;7.538;2024-01-15T05:44:06;326.30;;;304.38;;
56419;SDS011;42323;52.170;7.538;2024-01-15T05:46:32;317.98;;;296.92;;
56419;SDS011;42323;52.170;7.538;2024-01-15T05:48:59;319.85;;;298.08;;
56419;SDS011;42323;52.170;7.538;2024-01-15T05:51:26;332.00;;;309.15;;
56419;SDS011;42323;52.170;7.538;2024-01-15T05:53:53;324.98;;;301.60;;
56419;SDS011;42323;52.170;7.538;2024-01-15T05:56:19;325.15;;;303.50;;
56419;SDS011;42323;52.170;7.538;2024-01-15T05:58:46;329.35;;;307.33;;
56419;SDS011;42323;52.170;7.538;2024-01-15T06:01:14;315.60;;;294.02;;
56419;SDS011;42323;52.170;7.538;2024-01-15T06:03:41;314.10;;;293.25;;
56419;SDS011;42323;52.170;7.538;2024-01-15T06:06:08;449.83;;;321.02;;
56419;SDS011;42323;52.170;7.538;2024-01-15T06:08:35;325.63;;;303.67;;
56419;SDS011;42323;52.170;7.538;2024-01-15T06:11:02;324.10;;;301.90;;
56419;SDS011;42323;52.170;7.538;2024-01-15T06:13:29;328.58;;;306.23;;
56419;SDS011;42323;52.170;7.538;2024-01-15T06:15:56;330.33;;;308.02;;
56419;SDS011;42323;52.170;7.538;2024-01-15T06:18:22;330.23;;;307.60;;
56419;SDS011;42323;52.170;7.538;2024-01-15T06:20:49;331.17;;;308.65;;
56419;SDS011;42323;52.170;7.538;2024-01-15T06:23:16;326.15;;;303.40;;
56419;SDS011;42323;52.170;7.538;2024-01-15T06:25:46;322.88;;;301.10;;
56419;SDS011;42323;52.170;7.538;2024-01-15T06:28:13;326.52;;;304.65;;
56419;SDS011;42323;52.170;7.538;2024-01-15T06:30:39;326.75;;;304.70;;
56419;SDS011;42323;52.170;7.538;2024-01-15T06:33:06;331.33;;;308.13;;
56419;SDS011;42323;52.170;7.538;2024-01-15T06:35:33;331.30;;;308.50;;
56419;SDS011;42323;52.170;7.538;2024-01-15T06:38:00;320.75;;;297.98;;
56419;SDS011;42323;52.170;7.538;2024-01-15T06:40:27;325.83;;;303.45;;
56419;SDS011;42323;52.170;7.538;2024-01-15T06:42:53;323.77;;;301.27;;
56419;SDS011;42323;52.170;7.538;2024-01-15T06:45:20;320.98;;;297.80;;
56419;SDS011;42323;52.170;7.538;2024-01-15T06:47:47;328.77;;;305.65;;
56419;SDS011;42323;52.170;7.538;2024-01-15T06:50:13;315.48;;;293.65;;
56419;SDS011;42323;52.170;7.538;2024-01-15T06:52:40;321.67;;;299.48;;
56419;SDS011;42323;52.170;7.538;2024-01-15T06:55:07;471.02;;;331.27;;
56419;SDS011;42323;52.170;7.538;2024-01-15T06:57:34;317.70;;;296.13;;
56419;SDS011;42323;52.170;7.538;2024-01-15T07:00:01;326.60;;;304.13;;
56419;SDS011;42323;52.170;7.538;2024-01-15T07:02:27;327.65;;;303.70;;
56419;SDS011;42323;52.170;7.538;2024-01-15T07:04:54;316.02;;;295.08;;
56419;SDS011;42323;52.170;7.538;2024-01-15T07:07:20;319.02;;;297.88;;
56419;SDS011;42323;52.170;7.538;2024-01-15T07:09:47;317.50;;;296.23;;
56419;SDS011;42323;52.170;7.538;2024-01-15T07:12:14;322.83;;;300.85;;
56419;SDS011;42323;52.170;7.538;2024-01-15T07:14:40;318.63;;;297.13;;
56419;SDS011;42323;52.170;7.538;2024-01-15T07:17:07;330.52;;;305.08;;
56419;SDS011;42323;52.170;7.538;2024-01-15T07:19:33;317.63;;;296.33;;
56419;SDS011;42323;52.170;7.538;2024-01-15T07:22:00;318.95;;;297.60;;
56419;SDS011;42323;52.170;7.538;2024-01-15T07:24:27;319.25;;;298.08;;
56419;SDS011;42323;52.170;7.538;2024-01-15T07:26:53;318.90;;;297.27;;
56419;SDS011;42323;52.170;7.538;2024-01-15T07:29:20;319.35;;;297.92;;
56419;SDS011;42323;52.170;7.538;2024-01-15T07:31:48;326.48;;;304.65;;
56419;SDS011;42323;52.170;7.538;2024-01-15T07:34:16;327.27;;;305.77;;
56419;SDS011;42323;52.170;7.538;2024-01-15T07:36:44;321.40;;;299.83;;
56419;SDS011;42323;52.170;7.538;2024-01-15T07:39:11;319.00;;;297.52;;
56419;SDS011;42323;52.170;7.538;2024-01-15T07:41:38;327.00;;;304.80;;
56419;SDS011;42323;52.170;7.538;2024-01-15T07:44:05;342.45;;;318.95;;
56419;SDS011;42323;52.170;7.538;2024-01-15T07:46:31;336.30;;;314.05;;
56419;SDS011;42323;52.170;7.538;2024-01-15T07:48:58;332.88;;;311.05;;
56419;SDS011;42323;52.170;7.538;2024-01-15T07:51:25;332.23;;;310.30;;
56419;SDS011;42323;52.170;7.538;2024-01-15T07:53:55;343.98;;;319.13;;
56419;SDS011;42323;52.170;7.538;2024-01-15T07:56:22;341.30;;;318.60;;
56419;SDS011;42323;52.170;7.538;2024-01-15T07:58:51;340.73;;;317.65;;
56419;SDS011;42323;52.170;7.538;2024-01-15T08:01:18;475.20;;;340.45;;
56419;SDS011;42323;52.170;7.538;2024-01-15T08:03:45;334.65;;;312.10;;
56419;SDS011;42323;52.170;7.538;2024-01-15T08:06:12;334.50;;;310.95;;
56419;SDS011;42323;52.170;7.538;2024-01-15T08:08:38;345.75;;;319.42;;
56419;SDS011;42323;52.170;7.538;2024-01-15T08:11:05;339.00;;;315.13;;
56419;SDS011;42323;52.170;7.538;2024-01-15T08:13:32;339.30;;;316.25;;
56419;SDS011;42323;52.170;7.538;2024-01-15T08:15:58;357.17;;;333.27;;
56419;SDS011;42323;52.170;7.538;2024-01-15T08:18:25;343.52;;;319.88;;
56419;SDS011;42323;52.170;7.538;2024-01-15T08:20:52;342.35;;;319.40;;
56419;SDS011;42323;52.170;7.538;2024-01-15T08:23:20;340.02;;;316.88;;
56419;SDS011;42323;52.170;7.538;2024-01-15T08:25:47;337.02;;;313.58;;
56419;SDS011;42323;52.170;7.538;2024-01-15T08:28:14;337.02;;;314.10;;
56419;SDS011;42323;52.170;7.538;2024-01-15T08:30:40;346.60;;;322.83;;
56419;SDS011;42323;52.170;7.538;2024-01-15T08:33:07;352.17;;;326.80;;
56419;SDS011;42323;52.170;7.538;2024-01-15T08:35:40;348.80;;;325.17;;
56419;SDS011;42323;52.170;7.538;2024-01-15T08:38:06;348.77;;;325.05;;
56419;SDS011;42323;52.170;7.538;2024-01-15T08:40:33;345.73;;;321.98;;
56419;SDS011;42323;52.170;7.538;2024-01-15T08:42:59;354.98;;;330.45;;
56419;SDS011;42323;52.170;7.538;2024-01-15T08:45:26;346.17;;;322.38;;
56419;SDS011;42323;52.170;7.538;2024-01-15T08:47:55;342.90;;;319.75;;
56419;SDS011;42323;52.170;7.538;2024-01-15T08:50:22;356.42;;;327.80;;
56419;SDS011;42323;52.170;7.538;2024-01-15T08:52:48;349.45;;;324.55;;
56419;SDS011;42323;52.170;7.538;2024-01-15T08:55:15;342.30;;;318.52;;
56419;SDS011;42323;52.170;7.538;2024-01-15T08:57:42;338.65;;;314.65;;
56419;SDS011;42323;52.170;7.538;2024-01-15T09:00:09;340.60;;;317.00;;
56419;SDS011;42323;52.170;7.538;2024-01-15T09:02:36;344.30;;;320.63;;
56419;SDS011;42323;52.170;7.538;2024-01-15T09:05:03;340.05;;;316.60;;
56419;SDS011;42323;52.170;7.538;2024-01-15T09:07:30;332.77;;;310.63;;
56419;SDS011;42323;52.170;7.538;2024-01-15T09:09:57;343.77;;;320.90;;
56419;SDS011;42323;52.170;7.538;2024-01-15T09:12:25;347.98;;;321.38;;
56419;SDS011;42323;52.170;7.538;2024-01-15T09:14:53;343.08;;;318.88;;
56419;SDS011;42323;52.170;7.538;2024-01-15T09:17:20;345.35;;;318.52;;
56419;SDS011;42323;52.170;7.538;2024-01-15T09:19:49;333.38;;;310.80;;
56419;SDS011;42323;52.170;7.538;2024-01-15T09:22:16;348.80;;;323.65;;
56419;SDS011;42323;52.170;7.538;2024-01-15T09:24:45;442.13;;;338.20;;
56419;SDS011;42323;52.170;7.538;2024-01-15T09:27:12;466.60;;;341.73;;
56419;SDS011;42323;52.170;7.538;2024-01-15T09:29:39;340.75;;;316.42;;
56419;SDS011;42323;52.170;7.538;2024-01-15T09:32:08;347.58;;;323.08;;
56419;SDS011;42323;52.170;7.538;2024-01-15T09:34:35;487.80;;;345.63;;
56419;SDS011;42323;52.170;7.538;2024-01-15T09:37:02;341.48;;;316.52;;
56419;SDS011;42323;52.170;7.538;2024-01-15T09:39:30;460.77;;;342.88;;
56419;SDS011;42323;52.170;7.538;2024-01-15T09:41:58;441.77;;;338.02;;
56419;SDS011;42323;52.170;7.538;2024-01-15T09:44:25;346.52;;;321.52;;
56419;SDS011;42323;52.170;7.538;2024-01-15T09:46:53;470.08;;;346.35;;
56419;SDS011;42323;52.170;7.538;2024-01-15T09:49:22;349.35;;;324.27;;
56419;SDS011;42323;52.170;7.538;2024-01-15T09:51:49;354.92;;;329.13;;
56419;SDS011;42323;52.170;7.538;2024-01-15T09:54:31;349.80;;;323.10;;
56419;SDS011;42323;52.170;7.538;2024-01-15T09:56:59;354.42;;;327.60;;
56419;SDS011;42323;52.170;7.538;2024-01-15T09:59:27;343.98;;;318.50;;
56419;SDS011;42323;52.170;7.538;2024-01-15T10:01:54;349.58;;;323.48;;
56419;SDS011;42323;52.170;7.538;2024-01-15T10:04:23;347.70;;;320.92;;
56419;SDS011;42323;52.170;7.538;2024-01-15T10:06:50;343.48;;;317.33;;
56419;SDS011;42323;52.170;7.538;2024-01-15T10:09:18;349.25;;;322.42;;
56419;SDS011;42323;52.170;7.538;2024-01-15T10:11:45;349.35;;;322.55;;
56419;SDS011;42323;52.170;7.538;2024-01-15T10:14:11;347.13;;;319.83;;
56419;SDS011;42323;52.170;7.538;2024-01-15T10:16:42;345.17;;;317.42;;
56419;SDS011;42323;52.170;7.538;2024-01-15T10:19:09;359.55;;;325.70;;
56419;SDS011;42323;52.170;7.538;2024-01-15T10:21:36;356.35;;;327.10;;
56419;SDS011;42323;52.170;7.538;2024-01-15T10:24:03;342.70;;;316.10;;
56419;SDS011;42323;52.170;7.538;2024-01-15T10:26:31;410.35;;;331.98;;
56419;SDS011;42323;52.170;7.538;2024-01-15T10:28:58;364.25;;;328.33;;
56419;SDS011;42323;52.170;7.538;2024-01-15T10:31:25;364.40;;;328.10;;
56419;SDS011;42323;52.170;7.538;2024-01-15T10:34:00;367.10;;;330.30;;
56419;SDS011;42323;52.170;7.538;2024-01-15T10:36:38;372.75;;;332.63;;
56419;SDS011;42323;52.170;7.538;2024-01-15T10:39:06;490.50;;;346.02;;
56419;SDS011;42323;52.170;7.538;2024-01-15T10:41:34;393.02;;;335.85;;
56419;SDS011;42323;52.170;7.538;2024-01-15T10:44:01;495.05;;;345.17;;
56419;SDS011;42323;52.170;7.538;2024-01-15T10:46:27;406.85;;;333.58;;
56419;SDS011;42323;52.170;7.538;2024-01-15T10:48:55;461.30;;;341.15;;
56419;SDS011;42323;52.170;7.538;2024-01-15T10:51:22;379.40;;;338.08;;
56419;SDS011;42323;52.170;7.538;2024-01-15T10:53:49;381.08;;;334.20;;
56419;SDS011;42323;52.170;7.538;2024-01-15T10:56:16;411.20;;;336.60;;
56419;SDS011;42323;52.170;7.538;2024-01-15T10:58:44;405.23;;;336.95;;
56419;SDS011;42323;52.170;7.538;2024-01-15T11:01:12;507.95;;;345.98;;
56419;SDS011;42323;52.170;7.538;2024-01-15T11:03:39;396.95;;;339.60;;
56419;SDS011;42323;52.170;7.538;2024-01-15T11:06:16;372.45;;;332.45;;
56419;SDS011;42323;52.170;7.538;2024-01-15T11:08:49;367.15;;;330.20;;
56419;SDS011;42323;52.170;7.538;2024-01-15T11:11:17;374.17;;;334.67;;
56419;SDS011;42323;52.170;7.538;2024-01-15T11:13:46;373.85;;;335.33;;
56419;SDS011;42323;52.170;7.538;2024-01-15T11:16:13;376.98;;;338.95;;
56419;SDS011;42323;52.170;7.538;2024-01-15T11:21:23;390.60;;;339.70;;
56419;SDS011;42323;52.170;7.538;2024-01-15T11:23:57;412.17;;;337.45;;
56419;SDS011;42323;52.170;7.538;2024-01-15T11:26:29;400.77;;;337.10;;
56419;SDS011;42323;52.170;7.538;2024-01-15T11:28:59;439.80;;;338.95;;
56419;SDS011;42323;52.170;7.538;2024-01-15T11:31:30;487.38;;;349.20;;
56419;SDS011;42323;52.170;7.538;2024-01-15T11:34:16;452.70;;;347.15;;
56419;SDS011;42323;52.170;7.538;2024-01-15T11:41:57;506.10;;;343.90;;
56419;SDS011;42323;52.170;7.538;2024-01-15T11:44:25;450.75;;;339.08;;
56419;SDS011;42323;52.170;7.538;2024-01-15T11:47:02;445.63;;;337.77;;
56419;SDS011;42323;52.170;7.538;2024-01-15T11:52:35;467.20;;;342.15;;
56419;SDS011;42323;52.170;7.538;2024-01-15T11:57:46;376.35;;;334.35;;
56419;SDS011;42323;52.170;7.538;2024-01-15T12:00:16;508.83;;;352.45;;
56419;SDS011;42323;52.170;7.538;2024-01-15T12:02:44;411.15;;;337.45;;
56419;SDS011;42323;52.170;7.538;2024-01-15T12:05:13;392.95;;;338.27;;
56419;SDS011;42323;52.170;7.538;2024-01-15T12:07:42;380.65;;;338.25;;
56419;SDS011;42323;52.170;7.538;2024-01-15T12:10:13;517.22;;;354.42;;
56419;SDS011;42323;52.170;7.538;2024-01-15T12:13:04;412.60;;;349.73;;
56419;SDS011;42323;52.170;7.538;2024-01-15T12:15:33;390.52;;;352.20;;
56419;SDS011;42323;52.170;7.538;2024-01-15T12:18:01;488.35;;;357.95;;
56419;SDS011;42323;52.170;7.538;2024-01-15T12:20:29;516.60;;;364.98;;
56419;SDS011;42323;52.170;7.538;2024-01-15T12:22:57;375.00;;;342.30;;
56419;SDS011;42323;52.170;7.538;2024-01-15T12:25:27;379.30;;;345.75;;
56419;SDS011;42323;52.170;7.538;2024-01-15T12:27:56;376.42;;;342.42;;
56419;SDS011;42323;52.170;7.538;2024-01-15T12:30:23;382.42;;;348.50;;
56419;SDS011;42323;52.170;7.538;2024-01-15T12:32:50;361.58;;;332.60;;
56419;SDS011;42323;52.170;7.538;2024-01-15T12:35:17;366.95;;;338.33;;
56419;SDS011;42323;52.170;7.538;2024-01-15T12:37:43;503.80;;;361.40;;
56419;SDS011;42323;52.170;7.538;2024-01-15T12:40:18;378.55;;;346.42;;
56419;SDS011;42323;52.170;7.538;2024-01-15T12:42:46;371.85;;;341.00;;
56419;SDS011;42323;52.170;7.538;2024-01-15T12:45:12;360.27;;;332.05;;
56419;SDS011;42323;52.170;7.538;2024-01-15T12:47:40;362.05;;;332.50;;
56419;SDS011;42323;52.170;7.538;2024-01-15T12:50:11;360.65;;;332.33;;
56419;SDS011;42323;52.170;7.538;2024-01-15T12:52:44;360.38;;;333.75;;
56419;SDS011;42323;52.170;7.538;2024-01-15T12:55:11;359.70;;;331.98;;
56419;SDS011;42323;52.170;7.538;2024-01-15T12:57:38;360.50;;;333.00;;
56419;SDS011;42323;52.170;7.538;2024-01-15T13:00:05;358.10;;;332.30;;
56419;SDS011;42323;52.170;7.538;2024-01-15T13:02:39;367.67;;;341.10;;
56419;SDS011;42323;52.170;7.538;2024-01-15T13:05:09;360.67;;;334.58;;
56419;SDS011;42323;52.170;7.538;2024-01-15T13:07:40;369.80;;;343.35;;
56419;SDS011;42323;52.170;7.538;2024-01-15T13:10:07;362.73;;;336.27;;
56419;SDS011;42323;52.170;7.538;2024-01-15T13:12:37;367.33;;;339.98;;
56419;SDS011;42323;52.170;7.538;2024-01-15T13:15:04;366.70;;;338.98;;
56419;SDS011;42323;52.170;7.538;2024-01-15T13:17:31;365.80;;;337.48;;
56419;SDS011;42323;52.170;7.538;2024-01-15T13:19:58;356.10;;;330.55;;
56419;SDS011;42323;52.170;7.538;2024-01-15T13:22:26;356.50;;;330.13;;
56419;SDS011;42323;52.170;7.538;2024-01-15T13:24:58;415.92;;;352.10;;
56419;SDS011;42323;52.170;7.538;2024-01-15T13:27:25;366.42;;;338.83;;
56419;SDS011;42323;52.170;7.538;2024-01-15T13:29:52;355.08;;;329.25;;
56419;SDS011;42323;52.170;7.538;2024-01-15T13:32:22;358.13;;;332.40;;
56419;SDS011;42323;52.170;7.538;2024-01-15T13:34:52;344.40;;;319.50;;
56419;SDS011;42323;52.170;7.538;2024-01-15T13:37:18;362.05;;;334.77;;
56419;SDS011;42323;52.170;7.538;2024-01-15T13:39:45;503.40;;;357.10;;
56419;SDS011;42323;52.170;7.538;2024-01-15T13:42:12;353.23;;;326.40;;
56419;SDS011;42323;52.170;7.538;2024-01-15T13:44:38;372.98;;;344.23;;
56419;SDS011;42323;52.170;7.538;2024-01-15T13:47:05;359.50;;;332.92;;
56419;SDS011;42323;52.170;7.538;2024-01-15T13:49:31;363.15;;;336.50;;
56419;SDS011;42323;52.170;7.538;2024-01-15T13:52:00;359.38;;;332.85;;
56419;SDS011;42323;52.170;7.538;2024-01-15T13:54:27;388.95;;;347.58;;
56419;SDS011;42323;52.170;7.538;2024-01-15T13:57:06;356.35;;;330.60;;
56419;SDS011;42323;52.170;7.538;2024-01-15T13:59:33;355.63;;;330.10;;
56419;SDS011;42323;52.170;7.538;2024-01-15T14:02:00;354.80;;;329.13;;
56419;SDS011;42323;52.170;7.538;2024-01-15T14:04:26;352.42;;;327.20;;
56419;SDS011;42323;52.170;7.538;2024-01-15T14:06:53;348.40;;;324.05;;
56419;SDS011;42323;52.170;7.538;2024-01-15T14:09:20;359.40;;;333.13;;
56419;SDS011;42323;52.170;7.538;2024-01-15T14:11:48;353.13;;;328.48;;
56419;SDS011;42323;52.170;7.538;2024-01-15T14:14:15;351.50;;;326.80;;